createdAt,value
2022-11-04T00:00:51.672Z,11.10
2022-11-04T00:01:54.088Z,11.10
2022-11-04T00:02:55.569Z,11.20
2022-11-04T00:03:57.025Z,11.20
2022-11-04T00:04:58.823Z,11.20
2022-11-04T00:06:04.254Z,11.10
2022-11-04T00:07:25.666Z,11.20
2022-11-04T00:08:27.212Z,11.20
2022-11-04T00:09:30.336Z,11.20
2022-11-04T00:10:50.534Z,11.20
2022-11-04T00:12:10.895Z,11.20
2022-11-04T00:13:12.322Z,11.20
2022-11-04T00:14:14.745Z,11.20
2022-11-04T00:15:35.009Z,11.20
2022-11-04T00:16:55.077Z,11.20
2022-11-04T00:17:58.192Z,11.20
2022-11-04T00:19:01.164Z,11.10
2022-11-04T00:20:21.249Z,11.20
2022-11-04T00:21:41.345Z,11.20
2022-11-04T00:23:01.863Z,11.20
2022-11-04T00:24:22.117Z,11.10
2022-11-04T00:25:42.407Z,11.10
2022-11-04T00:27:02.673Z,11.20
2022-11-04T00:28:43.572Z,11.10
2022-11-04T00:29:45.328Z,11.00
2022-11-04T00:30:47.011Z,11.00
2022-11-04T00:32:07.116Z,11.00
2022-11-04T00:33:26.710Z,11.00
2022-11-04T00:34:28.151Z,10.90
2022-11-04T00:35:29.638Z,10.90
2022-11-04T00:36:31.479Z,10.90
2022-11-04T00:37:35.682Z,10.90
2022-11-04T00:38:37.064Z,10.90
2022-11-04T00:39:38.407Z,11.00
2022-11-04T00:40:39.784Z,11.00
2022-11-04T00:41:41.195Z,11.00
2022-11-04T00:42:46.505Z,11.00
2022-11-04T00:43:47.957Z,11.00
2022-11-04T00:44:49.317Z,11.00
2022-11-04T00:45:50.716Z,11.00
2022-11-04T00:46:52.535Z,11.00
2022-11-04T00:47:53.883Z,11.00
2022-11-04T00:48:55.724Z,11.00
2022-11-04T00:49:57.163Z,11.00
2022-11-04T00:50:58.904Z,11.00
2022-11-04T00:52:00.480Z,11.00
2022-11-04T00:53:02.831Z,11.00
2022-11-04T00:54:04.587Z,11.00
2022-11-04T00:55:06.663Z,11.00
2022-11-04T00:56:08.322Z,10.90
2022-11-04T00:57:11.252Z,10.90
2022-11-04T00:58:13.018Z,10.80
2022-11-04T00:59:15.188Z,10.80
2022-11-04T01:00:16.921Z,10.80
2022-11-04T01:01:19.465Z,10.80
2022-11-04T01:02:21.105Z,10.80
2022-11-04T01:03:22.576Z,10.80
2022-11-04T01:04:23.944Z,10.80
2022-11-04T01:05:25.407Z,10.90
2022-11-04T01:06:27.545Z,10.80
2022-11-04T01:07:28.941Z,10.80
2022-11-04T01:08:30.323Z,10.90
2022-11-04T01:09:31.722Z,10.90
2022-11-04T01:10:36.006Z,10.90
2022-11-04T01:11:37.460Z,10.90
2022-11-04T01:12:38.845Z,10.90
2022-11-04T01:13:40.677Z,10.90
2022-11-04T01:14:42.175Z,10.90
2022-11-04T01:15:43.583Z,10.90
2022-11-04T01:16:45.949Z,10.90
2022-11-04T01:17:47.389Z,10.90
2022-11-04T01:18:49.493Z,10.90
2022-11-04T01:19:50.973Z,10.80
2022-11-04T01:20:52.387Z,10.90
2022-11-04T01:21:53.933Z,10.90
2022-11-04T01:22:55.320Z,10.90
2022-11-04T01:23:57.359Z,10.90
2022-11-04T01:24:59.111Z,10.80
2022-11-04T01:26:00.640Z,10.80
2022-11-04T01:27:02.269Z,10.80
2022-11-04T01:28:03.676Z,10.80
2022-11-04T01:29:05.088Z,10.80
2022-11-04T01:30:07.314Z,10.80
2022-11-04T01:31:11.269Z,10.70
2022-11-04T01:32:12.963Z,10.70
2022-11-04T01:33:14.556Z,10.80
2022-11-04T01:34:15.975Z,10.70
2022-11-04T01:35:17.469Z,10.70
2022-11-04T01:36:20.038Z,10.70
2022-11-04T01:37:21.436Z,10.70
2022-11-04T01:38:22.844Z,10.70
2022-11-04T01:39:24.395Z,10.70
2022-11-04T01:40:26.246Z,10.60
2022-11-04T01:41:31.702Z,10.60
2022-11-04T01:42:33.079Z,10.60
2022-11-04T01:43:53.758Z,10.50
2022-11-04T01:44:58.207Z,10.50
2022-11-04T01:46:01.403Z,10.50
2022-11-04T01:47:04.080Z,10.60
2022-11-04T01:48:17.418Z,10.50
2022-11-04T01:49:30.377Z,10.50
2022-11-04T01:50:34.152Z,10.50
2022-11-04T01:51:40.175Z,10.40
2022-11-04T01:53:14.534Z,10.40
2022-11-04T01:54:17.093Z,10.40
2022-11-04T01:55:25.965Z,10.40
2022-11-04T01:56:28.586Z,10.50
2022-11-04T01:57:37.005Z,10.50
2022-11-04T01:58:51.480Z,10.50
2022-11-04T01:59:53.004Z,10.40
2022-11-04T02:00:58.836Z,10.40
2022-11-04T02:02:00.626Z,10.40
2022-11-04T02:03:18.473Z,10.40
2022-11-04T02:04:26.764Z,10.40
2022-11-04T02:05:30.974Z,10.40
2022-11-04T02:06:32.697Z,10.30
2022-11-04T02:07:34.538Z,10.30
2022-11-04T02:08:37.164Z,10.30
2022-11-04T02:09:40.396Z,10.30
2022-11-04T02:10:49.767Z,10.30
2022-11-04T02:12:09.938Z,10.30
2022-11-04T02:13:11.675Z,10.30
2022-11-04T02:14:13.287Z,10.30
2022-11-04T02:15:16.059Z,10.30
2022-11-04T02:16:42.801Z,10.30
2022-11-04T02:17:56.135Z,10.30
2022-11-04T02:19:07.173Z,10.30
2022-11-04T02:20:17.172Z,10.30
2022-11-04T02:21:40.593Z,10.30
2022-11-04T02:23:18.644Z,10.30
2022-11-04T02:24:50.834Z,10.30
2022-11-04T02:26:28.499Z,10.30
2022-11-04T02:27:58.397Z,10.30
2022-11-04T02:29:18.363Z,10.30
2022-11-04T02:30:21.875Z,10.30
2022-11-04T02:31:31.281Z,10.30
2022-11-04T02:32:45.134Z,10.30
2022-11-04T02:33:53.659Z,10.40
2022-11-04T02:35:13.746Z,10.40
2022-11-04T02:36:39.141Z,10.40
2022-11-04T02:38:03.890Z,10.40
2022-11-04T02:39:16.113Z,10.30
2022-11-04T02:40:38.132Z,10.40
2022-11-04T02:41:39.482Z,10.40
2022-11-04T02:42:40.803Z,10.40
2022-11-04T02:43:45.807Z,10.40
2022-11-04T02:45:10.788Z,10.40
2022-11-04T02:46:24.684Z,10.40
2022-11-04T02:47:29.641Z,10.40
2022-11-04T02:48:45.275Z,10.40
2022-11-04T02:50:12.499Z,10.40
2022-11-04T02:51:40.376Z,10.30
2022-11-04T02:52:57.644Z,10.40
2022-11-04T02:54:23.851Z,10.30
2022-11-04T02:55:27.244Z,10.30
2022-11-04T02:56:31.296Z,10.30
2022-11-04T02:57:37.497Z,10.30
2022-11-04T02:58:44.324Z,10.30
2022-11-04T02:59:50.194Z,10.30
2022-11-04T03:00:54.954Z,10.30
2022-11-04T03:01:59.217Z,10.30
2022-11-04T03:03:14.969Z,10.40
2022-11-04T03:04:21.890Z,10.40
2022-11-04T03:05:35.055Z,10.40
2022-11-04T03:06:37.720Z,10.40
2022-11-04T03:07:42.320Z,10.40
2022-11-04T03:08:51.087Z,10.50
2022-11-04T03:10:00.701Z,10.50
2022-11-04T03:11:17.805Z,10.50
2022-11-04T03:12:26.838Z,10.60
2022-11-04T03:13:57.854Z,10.60
2022-11-04T03:15:04.797Z,10.50
2022-11-04T03:16:12.700Z,10.60
2022-11-04T03:17:30.108Z,10.70
2022-11-04T03:18:50.058Z,10.60
2022-11-04T03:19:58.875Z,10.60
2022-11-04T03:21:03.073Z,10.60
2022-11-04T03:22:12.615Z,10.60
2022-11-04T03:23:14.730Z,10.60
2022-11-04T03:24:16.551Z,10.60
2022-11-04T03:25:18.050Z,10.50
2022-11-04T03:26:28.278Z,10.60
2022-11-04T03:27:35.232Z,10.50
2022-11-04T03:28:52.084Z,10.60
2022-11-04T03:29:59.666Z,10.60
2022-11-04T03:31:04.690Z,10.50
2022-11-04T03:32:26.326Z,10.50
2022-11-04T03:33:41.843Z,10.50
2022-11-04T03:34:43.335Z,10.50
2022-11-04T03:35:44.807Z,10.40
2022-11-04T03:36:46.419Z,10.40
2022-11-04T03:37:49.221Z,10.40
2022-11-04T03:38:52.620Z,10.40
2022-11-04T03:39:55.678Z,10.40
2022-11-04T03:40:59.575Z,10.40
2022-11-04T03:42:19.905Z,10.40
2022-11-04T03:43:30.273Z,10.40
2022-11-04T03:44:31.760Z,10.30
2022-11-04T03:45:33.350Z,10.30
2022-11-04T03:46:34.803Z,10.20
2022-11-04T03:47:37.458Z,10.20
2022-11-04T03:48:39.199Z,10.30
2022-11-04T03:49:40.889Z,10.30
2022-11-04T03:50:46.808Z,10.20
2022-11-04T03:51:48.815Z,10.20
2022-11-04T03:52:50.605Z,10.20
2022-11-04T03:53:52.663Z,10.20
2022-11-04T03:54:54.191Z,10.20
2022-11-04T03:56:25.913Z,10.20
2022-11-04T03:57:39.765Z,10.10
2022-11-04T03:58:51.934Z,10.10
2022-11-04T04:00:10.665Z,10.10
2022-11-04T04:01:23.695Z,10.10
2022-11-04T04:03:06.348Z,10.10
2022-11-04T04:04:17.327Z,10.10
2022-11-04T04:05:29.899Z,10.20
2022-11-04T04:06:35.891Z,10.10
2022-11-04T04:08:02.940Z,10.10
2022-11-04T04:09:20.708Z,10.00
2022-11-04T04:10:40.516Z,10.00
2022-11-04T04:12:23.130Z,10.10
2022-11-04T04:13:32.124Z,10.00
2022-11-04T04:14:44.139Z,10.00
2022-11-04T04:16:04.742Z,9.90
2022-11-04T04:17:34.653Z,9.90
2022-11-04T04:18:54.105Z,9.80
2022-11-04T04:20:13.023Z,9.80
2022-11-04T04:21:19.069Z,9.70
2022-11-04T04:22:24.606Z,9.70
2022-11-04T04:23:49.804Z,9.70
2022-11-04T04:25:12.637Z,9.70
2022-11-04T04:26:35.056Z,9.70
2022-11-04T04:27:38.376Z,9.70
2022-11-04T04:28:41.146Z,9.70
2022-11-04T04:29:45.092Z,9.70
2022-11-04T04:30:46.809Z,9.70
2022-11-04T04:31:50.244Z,9.60
2022-11-04T04:32:58.334Z,9.60
2022-11-04T04:33:59.717Z,9.60
2022-11-04T04:35:19.999Z,9.60
2022-11-04T04:36:21.492Z,9.60
2022-11-04T04:37:25.571Z,9.60
2022-11-04T04:38:51.302Z,9.60
2022-11-04T04:40:23.740Z,9.50
2022-11-04T04:41:49.219Z,9.50
2022-11-04T04:43:18.583Z,9.40
2022-11-04T04:44:48.150Z,9.40
2022-11-04T04:45:53.423Z,9.30
2022-11-04T04:46:57.348Z,9.30
2022-11-04T04:47:59.521Z,9.40
2022-11-04T04:49:08.457Z,9.40
2022-11-04T04:50:13.183Z,9.30
2022-11-04T04:51:14.775Z,9.30
2022-11-04T04:52:16.228Z,9.30
2022-11-04T04:53:17.880Z,9.30
2022-11-04T04:54:19.248Z,9.30
2022-11-04T04:55:20.793Z,9.30
2022-11-04T04:56:22.207Z,9.30
2022-11-04T04:57:23.703Z,9.30
2022-11-04T04:58:25.682Z,9.30
2022-11-04T04:59:27.034Z,9.20
2022-11-04T05:00:29.466Z,9.20
2022-11-04T05:01:31.116Z,9.20
2022-11-04T05:02:32.669Z,9.20
2022-11-04T05:03:34.185Z,9.20
2022-11-04T05:04:35.831Z,9.20
2022-11-04T05:05:37.466Z,9.30
2022-11-04T05:06:39.099Z,9.20
2022-11-04T05:07:40.764Z,9.20
2022-11-04T05:08:42.222Z,9.10
2022-11-04T05:09:43.944Z,9.10
2022-11-04T05:10:45.309Z,9.10
2022-11-04T05:11:46.880Z,9.10
2022-11-04T05:13:07.024Z,9.10
2022-11-04T05:14:08.391Z,9.10
2022-11-04T05:15:10.140Z,9.10
2022-11-04T05:16:11.923Z,9.10
2022-11-04T05:17:15.004Z,9.10
2022-11-04T05:18:16.615Z,9.00
2022-11-04T05:19:18.003Z,9.00
2022-11-04T05:20:19.401Z,9.10
2022-11-04T05:21:21.052Z,9.00
2022-11-04T05:22:22.688Z,9.00
2022-11-04T05:23:24.032Z,9.00
2022-11-04T05:24:25.440Z,9.00
2022-11-04T05:25:27.043Z,8.90
2022-11-04T05:26:28.725Z,8.90
2022-11-04T05:27:30.368Z,9.00
2022-11-04T05:28:32.601Z,8.90
2022-11-04T05:29:33.960Z,8.90
2022-11-04T05:30:35.638Z,8.90
2022-11-04T05:31:37.020Z,8.90
2022-11-04T05:32:38.447Z,8.90
2022-11-04T05:33:39.957Z,8.90
2022-11-04T05:34:41.351Z,8.90
2022-11-04T05:35:42.827Z,8.90
2022-11-04T05:36:44.762Z,8.90
2022-11-04T05:37:46.683Z,8.90
2022-11-04T05:38:52.643Z,8.90
2022-11-04T05:39:54.175Z,8.90
2022-11-04T05:40:58.414Z,8.90
2022-11-04T05:42:00.906Z,8.90
2022-11-04T05:43:02.691Z,8.90
2022-11-04T05:44:04.826Z,8.90
2022-11-04T05:45:06.737Z,8.90
2022-11-04T05:46:08.214Z,8.90
2022-11-04T05:47:09.680Z,8.90
2022-11-04T05:48:11.118Z,8.90
2022-11-04T05:49:12.562Z,8.80
2022-11-04T05:50:13.977Z,8.80
2022-11-04T05:51:17.020Z,8.80
2022-11-04T05:52:18.397Z,8.80
2022-11-04T05:53:19.870Z,8.80
2022-11-04T05:54:21.708Z,8.90
2022-11-04T05:55:23.131Z,8.80
2022-11-04T05:56:24.900Z,8.80
2022-11-04T05:57:26.297Z,8.80
2022-11-04T05:58:27.981Z,8.80
2022-11-04T05:59:29.385Z,8.80
2022-11-04T06:00:30.865Z,8.70
2022-11-04T06:01:38.927Z,8.80
2022-11-04T06:02:40.467Z,8.80
2022-11-04T06:03:42.311Z,8.80
2022-11-04T06:04:43.736Z,8.90
2022-11-04T06:05:45.168Z,8.90
2022-11-04T06:06:46.904Z,8.90
2022-11-04T06:07:48.475Z,8.90
2022-11-04T06:08:50.845Z,8.90
2022-11-04T06:09:52.278Z,8.80
2022-11-04T06:10:53.987Z,8.80
2022-11-04T06:11:55.785Z,8.80
2022-11-04T06:12:57.862Z,8.80
2022-11-04T06:13:59.938Z,8.80
2022-11-04T06:15:01.445Z,8.80
2022-11-04T06:16:02.913Z,8.80
2022-11-04T06:17:04.514Z,8.70
2022-11-04T06:18:06.138Z,8.80
2022-11-04T06:19:09.720Z,8.80
2022-11-04T06:20:14.789Z,8.80
2022-11-04T06:21:16.158Z,8.80
2022-11-04T06:22:19.813Z,8.80
2022-11-04T06:23:21.194Z,8.70
2022-11-04T06:24:22.608Z,8.70
2022-11-04T06:25:24.175Z,8.70
2022-11-04T06:26:28.226Z,8.70
2022-11-04T06:27:30.335Z,8.70
2022-11-04T06:28:32.393Z,8.70
2022-11-04T06:29:33.901Z,8.70
2022-11-04T06:30:35.727Z,8.70
2022-11-04T06:31:38.406Z,8.70
2022-11-04T06:32:39.808Z,8.70
2022-11-04T06:33:41.448Z,8.70
2022-11-04T06:34:43.047Z,8.70
2022-11-04T06:35:44.419Z,8.60
2022-11-04T06:36:45.866Z,8.60
2022-11-04T06:37:47.501Z,8.60
2022-11-04T06:38:48.964Z,8.60
2022-11-04T06:39:50.372Z,8.60
2022-11-04T06:40:52.153Z,8.60
2022-11-04T06:41:55.487Z,8.60
2022-11-04T06:42:59.510Z,8.60
2022-11-04T06:44:00.973Z,8.70
2022-11-04T06:45:02.362Z,8.70
2022-11-04T06:46:04.493Z,8.70
2022-11-04T06:47:06.209Z,8.70
2022-11-04T06:48:07.632Z,8.60
2022-11-04T06:49:14.949Z,8.60
2022-11-04T06:50:16.318Z,8.60
2022-11-04T06:51:17.783Z,8.60
2022-11-04T06:52:19.238Z,8.60
2022-11-04T06:53:20.619Z,8.60
2022-11-04T06:54:22.279Z,8.60
2022-11-04T06:55:24.115Z,8.60
2022-11-04T06:56:25.698Z,8.60
2022-11-04T06:57:27.099Z,8.70
2022-11-04T06:58:30.140Z,8.70
2022-11-04T06:59:31.519Z,8.70
2022-11-04T07:00:33.009Z,8.80
2022-11-04T07:01:37.164Z,8.80
2022-11-04T07:02:39.074Z,8.80
2022-11-04T07:03:40.875Z,8.80
2022-11-04T07:04:42.308Z,8.80
2022-11-04T07:05:43.698Z,8.80
2022-11-04T07:06:45.317Z,8.90
2022-11-04T07:07:47.473Z,8.80
2022-11-04T07:08:50.300Z,8.80
2022-11-04T07:09:51.656Z,8.80
2022-11-04T07:10:55.402Z,8.80
2022-11-04T07:11:56.821Z,8.90
2022-11-04T07:12:58.301Z,8.90
2022-11-04T07:13:59.764Z,8.90
2022-11-04T07:15:01.205Z,8.90
2022-11-04T07:16:06.194Z,8.90
2022-11-04T07:17:07.865Z,8.90
2022-11-04T07:18:09.677Z,9.00
2022-11-04T07:19:11.347Z,9.00
2022-11-04T07:20:13.313Z,9.00
2022-11-04T07:21:14.993Z,9.00
2022-11-04T07:22:16.377Z,9.10
2022-11-04T07:23:18.876Z,9.10
2022-11-04T07:24:20.358Z,9.10
2022-11-04T07:25:21.782Z,9.10
2022-11-04T07:26:23.197Z,9.20
2022-11-04T07:27:24.691Z,9.20
2022-11-04T07:28:26.086Z,9.20
2022-11-04T07:29:28.756Z,9.20
2022-11-04T07:30:30.576Z,9.30
2022-11-04T07:31:32.550Z,9.20
2022-11-04T07:32:34.128Z,9.30
2022-11-04T07:33:35.623Z,9.30
2022-11-04T07:34:37.067Z,9.40
2022-11-04T07:35:38.900Z,9.40
2022-11-04T07:36:40.315Z,9.40
2022-11-04T07:37:41.775Z,9.50
2022-11-04T07:38:43.417Z,9.50
2022-11-04T07:39:44.908Z,9.50
2022-11-04T07:40:46.381Z,9.60
2022-11-04T07:41:47.945Z,9.70
2022-11-04T07:42:49.366Z,9.70
2022-11-04T07:43:53.468Z,9.70
2022-11-04T07:44:55.037Z,9.80
2022-11-04T07:46:08.940Z,9.80
2022-11-04T07:47:10.569Z,9.80
2022-11-04T07:48:12.555Z,9.90
2022-11-04T07:49:14.140Z,9.80
2022-11-04T07:50:15.673Z,9.90
2022-11-04T07:51:19.885Z,9.90
2022-11-04T07:52:21.698Z,10.00
2022-11-04T07:53:23.172Z,10.00
2022-11-04T07:54:24.536Z,10.10
2022-11-04T07:55:26.374Z,10.10
2022-11-04T07:56:28.082Z,10.10
2022-11-04T07:57:29.511Z,10.10
2022-11-04T07:58:30.982Z,10.20
2022-11-04T07:59:32.382Z,10.20
2022-11-04T08:00:33.778Z,10.20
2022-11-04T08:01:35.306Z,10.30
2022-11-04T08:02:36.781Z,10.30
2022-11-04T08:03:38.413Z,10.30
2022-11-04T08:04:39.922Z,10.30
2022-11-04T08:05:41.703Z,10.40
2022-11-04T08:06:43.051Z,10.40
2022-11-04T08:07:44.637Z,10.40
2022-11-04T08:08:48.004Z,10.40
2022-11-04T08:09:49.396Z,10.40
2022-11-04T08:10:56.932Z,10.50
2022-11-04T08:11:58.335Z,10.50
2022-11-04T08:12:59.924Z,10.50
2022-11-04T08:14:04.008Z,10.50
2022-11-04T08:15:05.966Z,10.60
2022-11-04T08:16:13.289Z,10.60
2022-11-04T08:17:14.681Z,10.70
2022-11-04T08:18:16.090Z,10.70
2022-11-04T08:19:17.596Z,10.70
2022-11-04T08:20:18.973Z,10.80
2022-11-04T08:21:21.588Z,10.80
2022-11-04T08:22:23.059Z,10.90
2022-11-04T08:23:24.678Z,11.00
2022-11-04T08:24:26.542Z,11.00
2022-11-04T08:25:27.903Z,11.00
2022-11-04T08:26:29.656Z,11.10
2022-11-04T08:27:31.535Z,11.10
2022-11-04T08:28:33.028Z,11.10
2022-11-04T08:29:34.819Z,11.10
2022-11-04T08:30:36.197Z,11.10
2022-11-04T08:31:37.988Z,11.10
2022-11-04T08:32:39.369Z,11.10
2022-11-04T08:33:41.706Z,11.10
2022-11-04T08:34:43.145Z,11.10
2022-11-04T08:35:44.729Z,11.10
2022-11-04T08:36:46.774Z,11.10
2022-11-04T08:37:48.161Z,11.10
2022-11-04T08:38:50.673Z,11.20
2022-11-04T08:39:52.127Z,11.20
2022-11-04T08:40:59.914Z,11.30
2022-11-04T08:42:02.134Z,11.30
2022-11-04T08:43:03.574Z,11.30
2022-11-04T08:44:05.500Z,11.30
2022-11-04T08:45:07.400Z,11.30
2022-11-04T08:46:10.318Z,11.40
2022-11-04T08:47:11.853Z,11.40
2022-11-04T08:48:14.120Z,11.40
2022-11-04T08:49:20.783Z,11.40
2022-11-04T08:50:27.730Z,11.50
2022-11-04T08:51:31.212Z,11.50
2022-11-04T08:52:32.666Z,11.60
2022-11-04T08:53:34.176Z,11.60
2022-11-04T08:54:35.933Z,11.70
2022-11-04T08:55:37.730Z,11.70
2022-11-04T08:56:40.219Z,11.80
2022-11-04T08:57:41.860Z,11.80
2022-11-04T08:58:43.390Z,11.90
2022-11-04T08:59:44.859Z,11.90
2022-11-04T09:00:46.501Z,12.00
2022-11-04T09:01:49.055Z,12.00
2022-11-04T09:02:50.792Z,12.10
2022-11-04T09:03:53.104Z,12.20
2022-11-04T09:04:54.878Z,12.30
2022-11-04T09:05:58.604Z,12.30
2022-11-04T09:07:07.920Z,12.40
2022-11-04T09:08:09.776Z,12.40
2022-11-04T09:09:15.351Z,12.50
2022-11-04T09:10:17.315Z,12.60
2022-11-04T09:11:19.092Z,12.60
2022-11-04T09:12:20.688Z,12.70
2022-11-04T09:13:22.203Z,12.70
2022-11-04T09:14:23.888Z,12.80
2022-11-04T09:15:25.371Z,12.80
2022-11-04T09:16:28.623Z,12.80
2022-11-04T09:17:30.015Z,12.90
2022-11-04T09:18:32.284Z,13.00
2022-11-04T09:19:33.773Z,13.00
2022-11-04T09:20:39.273Z,13.00
2022-11-04T09:21:41.751Z,12.90
2022-11-04T09:22:45.977Z,12.90
2022-11-04T09:23:47.721Z,13.00
2022-11-04T09:24:49.183Z,12.90
2022-11-04T09:25:50.685Z,12.80
2022-11-04T09:26:52.465Z,12.90
2022-11-04T09:27:53.877Z,12.90
2022-11-04T09:28:56.868Z,12.80
2022-11-04T09:29:58.343Z,12.90
2022-11-04T09:30:59.780Z,13.00
2022-11-04T09:32:01.491Z,13.00
2022-11-04T09:33:03.019Z,12.90
2022-11-04T09:34:04.885Z,12.90
2022-11-04T09:35:06.493Z,12.90
2022-11-04T09:36:09.383Z,12.90
2022-11-04T09:37:11.125Z,12.90
2022-11-04T09:38:12.578Z,12.90
2022-11-04T09:39:14.031Z,13.00
2022-11-04T09:40:19.144Z,13.10
2022-11-04T09:41:51.193Z,13.10
2022-11-04T09:43:23.477Z,13.10
2022-11-04T09:44:39.810Z,13.10
2022-11-04T09:45:49.801Z,12.90
2022-11-04T09:46:54.934Z,13.00
2022-11-04T09:48:00.428Z,13.00
2022-11-04T09:49:05.536Z,12.90
2022-11-04T09:50:12.151Z,12.90
2022-11-04T09:51:32.620Z,12.90
2022-11-04T09:52:44.391Z,13.00
2022-11-04T09:53:56.394Z,13.00
2022-11-04T09:55:22.662Z,13.10
2022-11-04T09:56:29.965Z,13.20
2022-11-04T09:57:33.091Z,13.30
2022-11-04T09:58:38.592Z,13.40
2022-11-04T09:59:40.090Z,13.40
2022-11-04T10:00:45.210Z,13.50
2022-11-04T10:02:04.398Z,13.40
2022-11-04T10:03:39.196Z,13.40
2022-11-04T10:05:04.786Z,13.30
2022-11-04T10:06:30.811Z,13.20
2022-11-04T10:08:26.367Z,13.30
2022-11-04T10:09:38.219Z,13.30
2022-11-04T10:10:53.566Z,13.40
2022-11-04T10:12:26.758Z,13.40
2022-11-04T10:13:39.975Z,13.40
2022-11-04T10:14:47.499Z,13.50
2022-11-04T10:16:20.084Z,13.50
2022-11-04T10:18:07.688Z,13.60
2022-11-04T10:19:23.418Z,13.30
2022-11-04T10:20:45.055Z,13.20
2022-11-04T10:22:02.166Z,13.20
2022-11-04T10:23:26.689Z,13.20
2022-11-04T10:25:12.988Z,13.30
2022-11-04T10:26:23.964Z,13.40
2022-11-04T10:27:29.985Z,13.40
2022-11-04T10:28:38.894Z,13.50
2022-11-04T10:29:45.605Z,13.50
2022-11-04T10:30:50.617Z,13.50
2022-11-04T10:31:55.480Z,13.60
2022-11-04T10:33:32.755Z,13.40
2022-11-04T10:34:41.083Z,13.40
2022-11-04T10:35:45.365Z,13.30
2022-11-04T10:36:49.031Z,13.30
2022-11-04T10:37:53.569Z,13.30
2022-11-04T10:38:56.232Z,13.20
2022-11-04T10:40:15.133Z,13.20
2022-11-04T10:41:33.160Z,13.10
2022-11-04T10:42:34.678Z,13.10
2022-11-04T10:43:38.808Z,13.00
2022-11-04T10:44:40.897Z,13.00
2022-11-04T10:46:09.950Z,12.90
2022-11-04T10:47:28.104Z,12.90
2022-11-04T10:48:37.109Z,12.90
2022-11-04T10:50:06.752Z,12.90
2022-11-04T10:51:07.845Z,12.90
2022-11-04T10:52:10.588Z,12.90
2022-11-04T10:53:24.769Z,12.90
2022-11-04T10:54:26.956Z,12.90
2022-11-04T10:55:52.011Z,12.90
2022-11-04T10:56:56.687Z,12.90
2022-11-04T10:57:59.405Z,12.90
2022-11-04T10:59:19.046Z,12.90
2022-11-04T11:00:36.441Z,12.90
2022-11-04T11:01:38.596Z,13.00
2022-11-04T11:02:40.167Z,13.00
2022-11-04T11:03:41.620Z,13.00
2022-11-04T11:04:45.565Z,13.00
2022-11-04T11:05:47.567Z,13.10
2022-11-04T11:06:50.601Z,13.10
2022-11-04T11:07:54.986Z,13.20
2022-11-04T11:09:18.382Z,13.30
2022-11-04T11:10:22.422Z,13.40
2022-11-04T11:11:53.457Z,13.40
2022-11-04T11:13:07.075Z,13.40
2022-11-04T11:14:33.614Z,13.40
2022-11-04T11:15:41.479Z,13.50
2022-11-04T11:16:45.429Z,13.50
2022-11-04T11:17:47.614Z,13.60
2022-11-04T11:19:11.764Z,13.70
2022-11-04T11:20:24.584Z,13.70
2022-11-04T11:21:26.101Z,13.70
2022-11-04T11:22:34.116Z,13.80
2022-11-04T11:23:41.623Z,13.80
2022-11-04T11:24:43.191Z,13.90
2022-11-04T11:25:50.432Z,13.90
2022-11-04T11:27:01.178Z,14.00
2022-11-04T11:28:21.963Z,13.90
2022-11-04T11:29:27.185Z,13.90
2022-11-04T11:30:34.506Z,14.00
2022-11-04T11:31:40.307Z,13.90
2022-11-04T11:32:44.239Z,13.80
2022-11-04T11:34:02.769Z,13.80
2022-11-04T11:35:10.722Z,13.80
2022-11-04T11:36:17.580Z,13.80
2022-11-04T11:37:25.771Z,13.80
2022-11-04T11:38:32.832Z,13.90
2022-11-04T11:39:35.714Z,13.90
2022-11-04T11:40:47.609Z,13.90
2022-11-04T11:41:56.755Z,13.90
2022-11-04T11:43:00.799Z,13.90
2022-11-04T11:44:19.771Z,13.90
2022-11-04T11:45:23.598Z,14.00
2022-11-04T11:46:29.009Z,14.00
2022-11-04T11:47:31.394Z,14.00
2022-11-04T11:48:32.777Z,14.00
2022-11-04T11:49:37.282Z,13.90
2022-11-04T11:50:53.799Z,13.90
2022-11-04T11:51:56.105Z,14.00
2022-11-04T11:53:18.223Z,13.90
2022-11-04T11:54:19.725Z,13.90
2022-11-04T11:55:30.195Z,13.90
2022-11-04T11:57:11.495Z,13.90
2022-11-04T12:01:30.657Z,14.00
2022-11-04T12:02:42.196Z,14.00
2022-11-04T12:10:50.541Z,14.00
2022-11-04T12:12:13.184Z,13.90
2022-11-04T12:13:29.435Z,13.80
2022-11-04T12:15:01.657Z,13.60
2022-11-04T12:16:03.024Z,13.70
2022-11-04T12:17:29.261Z,13.70
2022-11-04T12:19:06.553Z,13.70
2022-11-04T12:20:19.326Z,13.70
2022-11-04T12:21:33.929Z,13.70
2022-11-04T12:23:24.488Z,13.70
2022-11-04T12:24:41.066Z,13.80
2022-11-04T12:25:54.553Z,13.80
2022-11-04T12:27:01.966Z,13.80
2022-11-04T12:28:15.676Z,13.70
2022-11-04T12:29:36.132Z,13.80
2022-11-04T12:30:59.941Z,13.90
2022-11-04T12:32:10.849Z,13.90
2022-11-04T12:33:39.848Z,14.00
2022-11-04T12:34:41.272Z,14.00
2022-11-04T12:36:02.877Z,14.10
2022-11-04T12:37:33.552Z,14.20
2022-11-04T12:38:53.558Z,14.30
2022-11-04T12:39:58.057Z,14.40
2022-11-04T12:41:46.868Z,14.50
2022-11-04T12:42:58.283Z,14.60
2022-11-04T12:44:05.716Z,14.70
2022-11-04T12:45:10.519Z,14.70
2022-11-04T12:46:14.935Z,14.70
2022-11-04T12:47:25.150Z,14.70
2022-11-04T12:49:03.025Z,14.80
2022-11-04T12:50:32.491Z,14.80
2022-11-04T12:51:42.460Z,14.90
2022-11-04T12:53:16.035Z,14.90
2022-11-04T12:54:23.936Z,14.90
2022-11-04T12:56:02.071Z,14.90
2022-11-04T12:57:34.445Z,14.80
2022-11-04T12:58:42.690Z,14.70
2022-11-04T12:59:52.393Z,14.70
2022-11-04T13:01:07.648Z,14.60
2022-11-04T13:02:21.789Z,14.50
2022-11-04T13:03:53.683Z,14.50
2022-11-04T13:05:23.148Z,14.50
2022-11-04T13:06:44.261Z,14.40
2022-11-04T13:07:55.483Z,14.30
2022-11-04T13:09:03.495Z,14.30
2022-11-04T13:10:30.947Z,14.30
2022-11-04T13:11:54.141Z,14.30
2022-11-04T13:13:00.966Z,14.30
2022-11-04T13:14:19.083Z,14.30
2022-11-04T13:15:28.792Z,14.30
2022-11-04T13:16:40.643Z,14.30
2022-11-04T13:17:43.816Z,14.40
2022-11-04T13:18:47.894Z,14.40
2022-11-04T13:19:54.444Z,14.40
2022-11-04T13:21:03.126Z,14.50
2022-11-04T13:22:11.684Z,14.40
2022-11-04T13:23:28.463Z,14.50
2022-11-04T13:24:37.479Z,14.50
2022-11-04T13:25:45.002Z,14.50
2022-11-04T13:26:46.735Z,14.60
2022-11-04T13:27:48.762Z,14.70
2022-11-04T13:29:10.363Z,14.70
2022-11-04T13:30:34.927Z,14.90
2022-11-04T13:31:57.790Z,15.10
2022-11-04T13:33:11.705Z,15.10
2022-11-04T13:34:46.115Z,15.20
2022-11-04T13:36:07.020Z,15.30
2022-11-04T13:37:14.108Z,15.40
2022-11-04T13:38:37.953Z,15.40
2022-11-04T13:39:44.738Z,15.30
2022-11-04T13:41:00.821Z,15.20
2022-11-04T13:42:40.478Z,15.00
2022-11-04T13:43:50.322Z,14.80
2022-11-04T13:44:57.858Z,14.60
2022-11-04T13:45:59.631Z,14.40
2022-11-04T13:47:04.436Z,14.20
2022-11-04T13:48:11.374Z,14.00
2022-11-04T13:49:12.721Z,13.90
2022-11-04T13:50:40.384Z,13.80
2022-11-04T13:52:01.758Z,13.60
2022-11-04T13:53:05.763Z,13.50
2022-11-04T13:54:30.428Z,13.40
2022-11-04T13:55:32.347Z,13.30
2022-11-04T13:56:36.511Z,13.20
2022-11-04T13:57:57.664Z,13.10
2022-11-04T13:59:07.790Z,12.90
2022-11-04T14:00:14.700Z,12.90
2022-11-04T14:01:36.538Z,12.70
2022-11-04T14:03:21.370Z,12.60
2022-11-04T14:04:31.659Z,12.50
2022-11-04T14:05:34.971Z,12.40
2022-11-04T14:06:58.105Z,12.40
2022-11-04T14:08:02.535Z,12.40
2022-11-04T14:09:28.771Z,12.40
2022-11-04T14:10:58.550Z,12.40
2022-11-04T14:12:16.952Z,12.40
2022-11-04T14:13:34.875Z,12.40
2022-11-04T14:14:37.526Z,12.20
2022-11-04T14:16:06.777Z,12.20
2022-11-04T14:17:33.055Z,12.10
2022-11-04T14:18:37.531Z,12.00
2022-11-04T14:19:58.070Z,11.90
2022-11-04T14:21:11.464Z,11.90
2022-11-04T14:22:16.871Z,11.70
2022-11-04T14:23:24.512Z,11.70
2022-11-04T14:24:28.698Z,11.70
2022-11-04T14:25:44.088Z,11.60
2022-11-04T14:26:48.387Z,11.60
2022-11-04T14:27:55.742Z,11.60
2022-11-04T14:29:06.083Z,11.60
2022-11-04T14:30:32.915Z,11.70
2022-11-04T14:31:38.016Z,11.60
2022-11-04T14:32:42.381Z,11.60
2022-11-04T14:33:58.530Z,11.60
2022-11-04T14:35:06.024Z,11.60
2022-11-04T14:36:40.144Z,11.60
2022-11-04T14:37:41.843Z,11.60
2022-11-04T14:38:44.215Z,11.50
2022-11-04T14:39:45.717Z,11.50
2022-11-04T14:40:51.278Z,11.50
2022-11-04T14:42:01.867Z,11.40
2022-11-04T14:43:04.560Z,11.30
2022-11-04T14:44:21.530Z,11.30
2022-11-04T14:45:24.721Z,11.30
2022-11-04T14:46:32.490Z,11.20
2022-11-04T14:47:34.509Z,11.20
2022-11-04T14:48:36.059Z,11.10
2022-11-04T14:49:44.846Z,11.00
2022-11-04T14:50:51.046Z,11.10
2022-11-04T14:51:54.647Z,11.00
2022-11-04T14:53:05.171Z,11.00
2022-11-04T14:54:22.898Z,11.00
2022-11-04T14:55:30.053Z,10.90